MZ-0026 weather

Mague Airport
Mague, Tete Province, Mozambique

Public forecast

Using degrees Celsius for public forecast. Weather courtesy of forecast.io.

Closest aviation weather report (METAR) to Mague Airport

Closest report is Chingozi Airport, 111.1 nm (205.7 km) E. Retrieved 2019/10/16 05:00 UTC (56 minutes ago):

FQTT 160500Z 12014KT 090V150 9999 BKN020 24/16 Q1020

Closest aviation forecast (TAF) to Mague Airport

Forecast is more than 6 hours old.

Closest forecast is Chingozi Airport, 111.1 nm (205.7 km) E. Retrieved 2019/10/15 18:09 UTC (12 hours ago):

TAF FQTT 151600Z 1518/1618 16008KT 9999 SCT020 TX34/1613Z TN22/1603Z BECMG 1600/1602 22008KT